This is the latest recevied weather packets stored in our database for station/object WW3TRG. If no packets are shown the sender has not sent any weather packets the latest 10 day(s).
| Time | Temp. | Humidity | Pressure | Rain* | Wind** | Luminosity | Snow |
|---|---|---|---|---|---|---|---|
| 1778165957 | 14.44° C | 46% | 1010.8 hPa | 0 mm | - | 625 W/m² | - |
| 1778165653 | 13.89° C | 49% | 1011.1 hPa | 0 mm | - | 662 W/m² | - |
| 1778165350 | 14.44° C | 56% | 1011.2 hPa | 0 mm | - | 532 W/m² | - |
| 1778165047 | 13.89° C | 46% | 1011.3 hPa | 0 mm | - | 585 W/m² | - |
| 1778164744 | 13.89° C | 47% | 1011.2 hPa | 0 mm | - | 685 W/m² | - |
| 1778164441 | 13.89° C | 49% | 1011.4 hPa | 0 mm | - | 689 W/m² | - |
| 1778164137 | 13.89° C | 50% | 1011.3 hPa | 0 mm | - | 654 W/m² | - |
| 1778163833 | 13.89° C | 55% | 1011.5 hPa | 0 mm | - | 565 W/m² | - |
| 1778163531 | 13.33° C | 50% | 1011.2 hPa | 0 mm | - | 669 W/m² | - |
| 1778163227 | 13.89° C | 52% | 1011.5 hPa | 0 mm | - | 612 W/m² | - |
| 1778162923 | 13.33° C | 53% | 1011.4 hPa | 0 mm | - | 591 W/m² | - |
| 1778162620 | 12.78° C | 52% | 1011.5 hPa | 0 mm | - | 551 W/m² | - |
| 1778162318 | 12.78° C | 51% | 1011.4 hPa | 0 mm | - | 505 W/m² | - |
| 1778162014 | 12.78° C | 51% | 1011.6 hPa | 0 mm | - | 528 W/m² | - |
| 1778161712 | 12.78° C | 55% | 1011.5 hPa | 0 mm | - | 486 W/m² | - |
| 1778161408 | 12.78° C | 54% | 1011.8 hPa | 0 mm | - | 401 W/m² | - |
| 1778161104 | 12.22° C | 57% | 1011.5 hPa | 0 mm | - | 461 W/m² | - |
| 1778160800 | 12.78° C | 56% | 1011.7 hPa | 0 mm | - | 439 W/m² | - |
| 1778160499 | 12.78° C | 57% | 1011.7 hPa | 0 mm | - | 336 W/m² | - |
| 1778160194 | 12.22° C | 57% | 1011.5 hPa | 0 mm | - | 371 W/m² | - |
| 1778159892 | 12.22° C | 58% | 1011.6 hPa | 0 mm | - | 331 W/m² | - |
| 1778159589 | 12.22° C | 57% | 1011.8 hPa | 0 mm | - | 331 W/m² | - |
| 1778159285 | 11.67° C | 58% | 1011.6 hPa | 0 mm | - | 391 W/m² | - |
| 1778158983 | 12.22° C | 58% | 1011.7 hPa | 0 mm | - | 346 W/m² | - |
| 1778158681 | 11.67° C | 60% | 1011.4 hPa | 0 mm | - | 295 W/m² | - |
* Rain latest hour (hover to see other rain measurements)
** Current wind speed in m/s (hover to see current wind gust speed)